sensor_id;sensor_type;location;lat;lon;timestamp;P1;durP1;ratioP1;P2;durP2;ratioP2
11010;SDS011;5558;42.702;23.178;2023-07-20T00:02:04;6.43;;;2.70;;
11010;SDS011;5558;42.702;23.178;2023-07-20T00:04:33;7.20;;;2.90;;
11010;SDS011;5558;42.702;23.178;2023-07-20T00:07:01;5.50;;;2.67;;
11010;SDS011;5558;42.702;23.178;2023-07-20T00:09:28;7.77;;;2.50;;
11010;SDS011;5558;42.702;23.178;2023-07-20T00:11:54;6.90;;;2.80;;
11010;SDS011;5558;42.702;23.178;2023-07-20T00:14:21;4.77;;;2.90;;
11010;SDS011;5558;42.702;23.178;2023-07-20T00:16:49;6.60;;;2.80;;
11010;SDS011;5558;42.702;23.178;2023-07-20T00:19:20;6.93;;;3.00;;
11010;SDS011;5558;42.702;23.178;2023-07-20T00:21:48;5.50;;;2.70;;
11010;SDS011;5558;42.702;23.178;2023-07-20T00:24:16;6.70;;;2.60;;
11010;SDS011;5558;42.702;23.178;2023-07-20T00:26:43;4.63;;;2.70;;
11010;SDS011;5558;42.702;23.178;2023-07-20T00:29:10;5.03;;;2.60;;
11010;SDS011;5558;42.702;23.178;2023-07-20T00:31:36;6.97;;;2.60;;
11010;SDS011;5558;42.702;23.178;2023-07-20T00:34:03;5.00;;;2.60;;
11010;SDS011;5558;42.702;23.178;2023-07-20T00:36:30;6.33;;;2.90;;
11010;SDS011;5558;42.702;23.178;2023-07-20T00:38:57;7.23;;;2.80;;
11010;SDS011;5558;42.702;23.178;2023-07-20T00:41:25;5.13;;;2.70;;
11010;SDS011;5558;42.702;23.178;2023-07-20T00:43:54;7.57;;;2.77;;
11010;SDS011;5558;42.702;23.178;2023-07-20T00:46:21;7.37;;;2.60;;
11010;SDS011;5558;42.702;23.178;2023-07-20T00:48:50;6.33;;;2.70;;
11010;SDS011;5558;42.702;23.178;2023-07-20T00:51:17;5.90;;;2.80;;
11010;SDS011;5558;42.702;23.178;2023-07-20T00:53:46;5.37;;;2.80;;
11010;SDS011;5558;42.702;23.178;2023-07-20T00:56:13;6.67;;;2.90;;
11010;SDS011;5558;42.702;23.178;2023-07-20T00:58:41;6.60;;;3.00;;
11010;SDS011;5558;42.702;23.178;2023-07-20T01:01:08;8.63;;;3.10;;
11010;SDS011;5558;42.702;23.178;2023-07-20T01:03:34;6.83;;;3.23;;
11010;SDS011;5558;42.702;23.178;2023-07-20T01:06:03;6.60;;;2.80;;
11010;SDS011;5558;42.702;23.178;2023-07-20T01:08:47;7.00;;;3.00;;
11010;SDS011;5558;42.702;23.178;2023-07-20T01:11:36;8.03;;;3.20;;
11010;SDS011;5558;42.702;23.178;2023-07-20T01:14:09;7.87;;;3.17;;
11010;SDS011;5558;42.702;23.178;2023-07-20T01:16:36;5.73;;;2.93;;
11010;SDS011;5558;42.702;23.178;2023-07-20T01:19:03;7.17;;;3.13;;
11010;SDS011;5558;42.702;23.178;2023-07-20T01:21:31;6.70;;;3.10;;
11010;SDS011;5558;42.702;23.178;2023-07-20T01:24:18;6.33;;;2.80;;
11010;SDS011;5558;42.702;23.178;2023-07-20T01:27:23;6.50;;;2.77;;
11010;SDS011;5558;42.702;23.178;2023-07-20T01:30:16;7.07;;;3.00;;
11010;SDS011;5558;42.702;23.178;2023-07-20T01:32:59;7.20;;;3.00;;
11010;SDS011;5558;42.702;23.178;2023-07-20T01:35:28;6.57;;;2.90;;
11010;SDS011;5558;42.702;23.178;2023-07-20T01:37:56;6.40;;;2.90;;
11010;SDS011;5558;42.702;23.178;2023-07-20T01:40:24;6.53;;;3.10;;
11010;SDS011;5558;42.702;23.178;2023-07-20T01:42:51;6.53;;;3.03;;
11010;SDS011;5558;42.702;23.178;2023-07-20T01:45:18;9.13;;;3.00;;
11010;SDS011;5558;42.702;23.178;2023-07-20T01:47:45;6.67;;;3.40;;
11010;SDS011;5558;42.702;23.178;2023-07-20T01:50:13;5.53;;;3.20;;
11010;SDS011;5558;42.702;23.178;2023-07-20T01:52:40;8.27;;;3.17;;
11010;SDS011;5558;42.702;23.178;2023-07-20T01:55:07;6.57;;;3.10;;
11010;SDS011;5558;42.702;23.178;2023-07-20T01:57:34;7.77;;;3.30;;
11010;SDS011;5558;42.702;23.178;2023-07-20T02:00:01;8.30;;;3.47;;
11010;SDS011;5558;42.702;23.178;2023-07-20T02:02:29;6.27;;;3.27;;
11010;SDS011;5558;42.702;23.178;2023-07-20T02:04:55;7.93;;;3.10;;
11010;SDS011;5558;42.702;23.178;2023-07-20T02:07:24;7.30;;;3.00;;
11010;SDS011;5558;42.702;23.178;2023-07-20T02:09:51;7.07;;;3.47;;
11010;SDS011;5558;42.702;23.178;2023-07-20T02:12:18;7.53;;;3.40;;
11010;SDS011;5558;42.702;23.178;2023-07-20T02:14:44;5.97;;;3.03;;
11010;SDS011;5558;42.702;23.178;2023-07-20T02:17:11;8.53;;;3.47;;
11010;SDS011;5558;42.702;23.178;2023-07-20T02:19:38;7.57;;;3.10;;
11010;SDS011;5558;42.702;23.178;2023-07-20T02:22:06;7.10;;;3.20;;
11010;SDS011;5558;42.702;23.178;2023-07-20T02:24:34;5.00;;;3.10;;
11010;SDS011;5558;42.702;23.178;2023-07-20T02:27:01;6.33;;;3.27;;
11010;SDS011;5558;42.702;23.178;2023-07-20T02:29:28;6.53;;;3.40;;
11010;SDS011;5558;42.702;23.178;2023-07-20T02:31:55;6.93;;;3.30;;
11010;SDS011;5558;42.702;23.178;2023-07-20T02:34:21;8.33;;;3.60;;
11010;SDS011;5558;42.702;23.178;2023-07-20T02:36:48;6.73;;;3.13;;
11010;SDS011;5558;42.702;23.178;2023-07-20T02:39:15;7.83;;;3.23;;
11010;SDS011;5558;42.702;23.178;2023-07-20T02:41:43;7.33;;;3.27;;
11010;SDS011;5558;42.702;23.178;2023-07-20T02:44:10;10.77;;;3.70;;
11010;SDS011;5558;42.702;23.178;2023-07-20T02:46:37;9.17;;;3.43;;
11010;SDS011;5558;42.702;23.178;2023-07-20T02:49:04;6.67;;;3.47;;
11010;SDS011;5558;42.702;23.178;2023-07-20T02:51:31;8.40;;;3.67;;
11010;SDS011;5558;42.702;23.178;2023-07-20T02:53:57;6.67;;;3.57;;
11010;SDS011;5558;42.702;23.178;2023-07-20T02:56:24;6.53;;;3.40;;
11010;SDS011;5558;42.702;23.178;2023-07-20T02:58:53;8.47;;;3.43;;
11010;SDS011;5558;42.702;23.178;2023-07-20T03:01:19;7.20;;;3.40;;
11010;SDS011;5558;42.702;23.178;2023-07-20T03:03:46;8.83;;;3.33;;
11010;SDS011;5558;42.702;23.178;2023-07-20T03:06:13;9.70;;;3.43;;
11010;SDS011;5558;42.702;23.178;2023-07-20T03:08:40;9.20;;;3.53;;
11010;SDS011;5558;42.702;23.178;2023-07-20T03:11:12;10.70;;;3.77;;
11010;SDS011;5558;42.702;23.178;2023-07-20T03:13:39;9.63;;;3.67;;
11010;SDS011;5558;42.702;23.178;2023-07-20T03:16:08;8.50;;;3.10;;
11010;SDS011;5558;42.702;23.178;2023-07-20T03:18:36;7.90;;;3.60;;
11010;SDS011;5558;42.702;23.178;2023-07-20T03:21:03;8.87;;;3.70;;
11010;SDS011;5558;42.702;23.178;2023-07-20T03:23:29;8.37;;;3.60;;
11010;SDS011;5558;42.702;23.178;2023-07-20T03:25:56;7.93;;;3.40;;
11010;SDS011;5558;42.702;23.178;2023-07-20T03:28:23;10.07;;;3.40;;
11010;SDS011;5558;42.702;23.178;2023-07-20T03:30:52;7.03;;;3.33;;
11010;SDS011;5558;42.702;23.178;2023-07-20T03:33:21;7.10;;;3.30;;
11010;SDS011;5558;42.702;23.178;2023-07-20T03:35:48;7.07;;;3.13;;
11010;SDS011;5558;42.702;23.178;2023-07-20T03:38:14;8.77;;;3.60;;
11010;SDS011;5558;42.702;23.178;2023-07-20T03:40:48;9.63;;;3.57;;
11010;SDS011;5558;42.702;23.178;2023-07-20T03:43:16;9.03;;;3.43;;
11010;SDS011;5558;42.702;23.178;2023-07-20T03:45:43;7.37;;;3.40;;
11010;SDS011;5558;42.702;23.178;2023-07-20T03:48:10;8.23;;;3.10;;
11010;SDS011;5558;42.702;23.178;2023-07-20T03:50:39;8.80;;;3.10;;
11010;SDS011;5558;42.702;23.178;2023-07-20T03:53:05;9.10;;;3.33;;
11010;SDS011;5558;42.702;23.178;2023-07-20T03:55:32;5.53;;;2.80;;
11010;SDS011;5558;42.702;23.178;2023-07-20T03:57:59;12.90;;;3.50;;
11010;SDS011;5558;42.702;23.178;2023-07-20T04:00:26;5.53;;;3.17;;
11010;SDS011;5558;42.702;23.178;2023-07-20T04:02:53;8.63;;;3.00;;
11010;SDS011;5558;42.702;23.178;2023-07-20T04:05:20;8.87;;;3.10;;
11010;SDS011;5558;42.702;23.178;2023-07-20T04:07:48;6.33;;;2.80;;
11010;SDS011;5558;42.702;23.178;2023-07-20T04:10:16;6.97;;;2.70;;
11010;SDS011;5558;42.702;23.178;2023-07-20T04:12:43;7.90;;;2.93;;
11010;SDS011;5558;42.702;23.178;2023-07-20T04:15:10;8.13;;;3.03;;
11010;SDS011;5558;42.702;23.178;2023-07-20T04:17:38;8.07;;;3.00;;
11010;SDS011;5558;42.702;23.178;2023-07-20T04:20:06;6.37;;;2.80;;
11010;SDS011;5558;42.702;23.178;2023-07-20T04:22:33;9.63;;;3.17;;
11010;SDS011;5558;42.702;23.178;2023-07-20T04:25:02;9.60;;;2.87;;
11010;SDS011;5558;42.702;23.178;2023-07-20T04:27:29;6.63;;;2.70;;
11010;SDS011;5558;42.702;23.178;2023-07-20T04:29:57;7.03;;;2.73;;
11010;SDS011;5558;42.702;23.178;2023-07-20T04:32:24;4.07;;;2.20;;
11010;SDS011;5558;42.702;23.178;2023-07-20T04:34:51;8.97;;;3.07;;
11010;SDS011;5558;42.702;23.178;2023-07-20T04:37:18;6.90;;;2.70;;
11010;SDS011;5558;42.702;23.178;2023-07-20T04:39:45;7.60;;;2.70;;
11010;SDS011;5558;42.702;23.178;2023-07-20T04:42:13;8.47;;;2.80;;
11010;SDS011;5558;42.702;23.178;2023-07-20T04:44:40;9.47;;;3.10;;
11010;SDS011;5558;42.702;23.178;2023-07-20T04:47:07;8.07;;;3.20;;
11010;SDS011;5558;42.702;23.178;2023-07-20T04:49:34;6.23;;;2.90;;
11010;SDS011;5558;42.702;23.178;2023-07-20T04:52:01;7.97;;;3.20;;
11010;SDS011;5558;42.702;23.178;2023-07-20T04:54:28;7.30;;;3.00;;
11010;SDS011;5558;42.702;23.178;2023-07-20T04:56:55;8.63;;;3.03;;
11010;SDS011;5558;42.702;23.178;2023-07-20T04:59:23;9.68;;;3.22;;
11010;SDS011;5558;42.702;23.178;2023-07-20T05:01:50;14.03;;;4.57;;
11010;SDS011;5558;42.702;23.178;2023-07-20T05:04:17;8.35;;;3.40;;
11010;SDS011;5558;42.702;23.178;2023-07-20T05:06:44;10.13;;;3.30;;
11010;SDS011;5558;42.702;23.178;2023-07-20T05:09:11;10.25;;;3.72;;
11010;SDS011;5558;42.702;23.178;2023-07-20T05:11:38;8.82;;;3.83;;
11010;SDS011;5558;42.702;23.178;2023-07-20T05:14:04;7.63;;;3.30;;
11010;SDS011;5558;42.702;23.178;2023-07-20T05:16:33;9.65;;;3.50;;
11010;SDS011;5558;42.702;23.178;2023-07-20T05:18:59;11.23;;;3.50;;
11010;SDS011;5558;42.702;23.178;2023-07-20T05:21:26;9.35;;;3.70;;
11010;SDS011;5558;42.702;23.178;2023-07-20T05:23:53;10.25;;;3.40;;
11010;SDS011;5558;42.702;23.178;2023-07-20T05:26:19;8.63;;;3.63;;
11010;SDS011;5558;42.702;23.178;2023-07-20T05:28:46;9.27;;;3.75;;
11010;SDS011;5558;42.702;23.178;2023-07-20T05:31:13;7.80;;;3.78;;
11010;SDS011;5558;42.702;23.178;2023-07-20T05:33:41;7.28;;;3.83;;
11010;SDS011;5558;42.702;23.178;2023-07-20T05:36:08;11.93;;;4.43;;
11010;SDS011;5558;42.702;23.178;2023-07-20T05:38:35;11.73;;;4.05;;
11010;SDS011;5558;42.702;23.178;2023-07-20T05:41:01;11.07;;;3.80;;
11010;SDS011;5558;42.702;23.178;2023-07-20T05:43:28;9.75;;;3.95;;
11010;SDS011;5558;42.702;23.178;2023-07-20T05:45:56;9.65;;;4.20;;
11010;SDS011;5558;42.702;23.178;2023-07-20T05:48:23;10.77;;;5.00;;
11010;SDS011;5558;42.702;23.178;2023-07-20T05:50:51;13.18;;;4.85;;
11010;SDS011;5558;42.702;23.178;2023-07-20T05:53:18;9.50;;;4.15;;
11010;SDS011;5558;42.702;23.178;2023-07-20T05:55:51;11.45;;;4.30;;
11010;SDS011;5558;42.702;23.178;2023-07-20T05:58:18;9.13;;;4.10;;
11010;SDS011;5558;42.702;23.178;2023-07-20T06:00:47;9.45;;;4.40;;
11010;SDS011;5558;42.702;23.178;2023-07-20T06:03:14;12.55;;;4.55;;
11010;SDS011;5558;42.702;23.178;2023-07-20T06:05:41;13.35;;;4.20;;
11010;SDS011;5558;42.702;23.178;2023-07-20T06:08:09;9.75;;;4.30;;
11010;SDS011;5558;42.702;23.178;2023-07-20T06:10:36;9.32;;;3.83;;
11010;SDS011;5558;42.702;23.178;2023-07-20T06:13:03;8.98;;;3.92;;
11010;SDS011;5558;42.702;23.178;2023-07-20T06:15:31;10.25;;;4.13;;
11010;SDS011;5558;42.702;23.178;2023-07-20T06:18:00;8.68;;;4.03;;
11010;SDS011;5558;42.702;23.178;2023-07-20T06:20:28;9.07;;;3.95;;
11010;SDS011;5558;42.702;23.178;2023-07-20T06:22:55;9.82;;;3.90;;
11010;SDS011;5558;42.702;23.178;2023-07-20T06:25:24;8.00;;;3.97;;
11010;SDS011;5558;42.702;23.178;2023-07-20T06:27:50;8.00;;;3.70;;
11010;SDS011;5558;42.702;23.178;2023-07-20T06:30:17;8.68;;;3.65;;
11010;SDS011;5558;42.702;23.178;2023-07-20T06:32:44;10.25;;;3.50;;
11010;SDS011;5558;42.702;23.178;2023-07-20T06:35:11;9.10;;;3.40;;
11010;SDS011;5558;42.702;23.178;2023-07-20T06:37:37;8.30;;;3.20;;
11010;SDS011;5558;42.702;23.178;2023-07-20T06:40:04;9.43;;;3.65;;
11010;SDS011;5558;42.702;23.178;2023-07-20T06:42:35;9.90;;;3.60;;
11010;SDS011;5558;42.702;23.178;2023-07-20T06:45:02;7.93;;;3.42;;
11010;SDS011;5558;42.702;23.178;2023-07-20T06:47:29;7.93;;;3.60;;
11010;SDS011;5558;42.702;23.178;2023-07-20T06:49:57;8.65;;;3.58;;
11010;SDS011;5558;42.702;23.178;2023-07-20T06:52:24;13.60;;;3.65;;
11010;SDS011;5558;42.702;23.178;2023-07-20T06:54:51;9.80;;;3.40;;
11010;SDS011;5558;42.702;23.178;2023-07-20T06:57:17;9.60;;;3.13;;
11010;SDS011;5558;42.702;23.178;2023-07-20T06:59:46;9.48;;;3.10;;
11010;SDS011;5558;42.702;23.178;2023-07-20T07:02:13;9.52;;;3.25;;
11010;SDS011;5558;42.702;23.178;2023-07-20T07:04:40;7.85;;;3.70;;
11010;SDS011;5558;42.702;23.178;2023-07-20T07:07:07;8.25;;;3.88;;
11010;SDS011;5558;42.702;23.178;2023-07-20T07:09:34;10.93;;;3.57;;
11010;SDS011;5558;42.702;23.178;2023-07-20T07:12:01;9.50;;;4.00;;
11010;SDS011;5558;42.702;23.178;2023-07-20T07:14:27;11.47;;;3.77;;
11010;SDS011;5558;42.702;23.178;2023-07-20T07:16:56;11.07;;;4.17;;
11010;SDS011;5558;42.702;23.178;2023-07-20T07:19:22;10.73;;;3.80;;
11010;SDS011;5558;42.702;23.178;2023-07-20T07:21:49;8.60;;;3.70;;
11010;SDS011;5558;42.702;23.178;2023-07-20T07:24:16;8.17;;;3.30;;
11010;SDS011;5558;42.702;23.178;2023-07-20T07:26:43;7.77;;;3.30;;
11010;SDS011;5558;42.702;23.178;2023-07-20T07:29:09;10.10;;;3.63;;
11010;SDS011;5558;42.702;23.178;2023-07-20T07:31:36;8.93;;;3.33;;
11010;SDS011;5558;42.702;23.178;2023-07-20T07:34:04;9.87;;;3.43;;
11010;SDS011;5558;42.702;23.178;2023-07-20T07:36:31;9.67;;;3.70;;
11010;SDS011;5558;42.702;23.178;2023-07-20T07:38:58;6.70;;;3.30;;
11010;SDS011;5558;42.702;23.178;2023-07-20T07:41:25;11.10;;;3.20;;
11010;SDS011;5558;42.702;23.178;2023-07-20T07:43:51;11.13;;;3.50;;
11010;SDS011;5558;42.702;23.178;2023-07-20T07:46:18;7.60;;;3.50;;
11010;SDS011;5558;42.702;23.178;2023-07-20T07:48:45;7.63;;;3.30;;
11010;SDS011;5558;42.702;23.178;2023-07-20T07:51:13;7.90;;;3.50;;
11010;SDS011;5558;42.702;23.178;2023-07-20T07:53:40;10.17;;;3.40;;
11010;SDS011;5558;42.702;23.178;2023-07-20T07:56:08;8.93;;;3.50;;
11010;SDS011;5558;42.702;23.178;2023-07-20T07:58:35;9.37;;;3.67;;
11010;SDS011;5558;42.702;23.178;2023-07-20T08:01:02;9.40;;;3.53;;
11010;SDS011;5558;42.702;23.178;2023-07-20T08:03:29;8.63;;;3.47;;
11010;SDS011;5558;42.702;23.178;2023-07-20T08:05:55;8.07;;;2.80;;
11010;SDS011;5558;42.702;23.178;2023-07-20T08:08:25;9.23;;;2.87;;
11010;SDS011;5558;42.702;23.178;2023-07-20T08:10:53;6.97;;;2.70;;
11010;SDS011;5558;42.702;23.178;2023-07-20T08:13:21;10.13;;;2.90;;
11010;SDS011;5558;42.702;23.178;2023-07-20T08:15:49;7.93;;;2.63;;
11010;SDS011;5558;42.702;23.178;2023-07-20T08:18:16;9.33;;;2.50;;
11010;SDS011;5558;42.702;23.178;2023-07-20T08:20:43;6.87;;;2.57;;
11010;SDS011;5558;42.702;23.178;2023-07-20T08:23:10;5.43;;;2.40;;
11010;SDS011;5558;42.702;23.178;2023-07-20T08:25:38;4.87;;;2.30;;
11010;SDS011;5558;42.702;23.178;2023-07-20T08:28:08;7.23;;;2.50;;
11010;SDS011;5558;42.702;23.178;2023-07-20T08:30:42;5.63;;;2.30;;
11010;SDS011;5558;42.702;23.178;2023-07-20T08:33:09;6.70;;;2.73;;
11010;SDS011;5558;42.702;23.178;2023-07-20T08:35:36;8.07;;;2.47;;
11010;SDS011;5558;42.702;23.178;2023-07-20T08:38:03;9.03;;;2.83;;
11010;SDS011;5558;42.702;23.178;2023-07-20T08:40:31;8.77;;;2.70;;
11010;SDS011;5558;42.702;23.178;2023-07-20T08:42:59;7.23;;;2.63;;
11010;SDS011;5558;42.702;23.178;2023-07-20T08:45:26;7.73;;;2.40;;
11010;SDS011;5558;42.702;23.178;2023-07-20T08:47:55;11.10;;;2.77;;
11010;SDS011;5558;42.702;23.178;2023-07-20T08:50:25;7.30;;;2.43;;
11010;SDS011;5558;42.702;23.178;2023-07-20T08:52:54;6.97;;;2.17;;
11010;SDS011;5558;42.702;23.178;2023-07-20T08:55:23;6.53;;;2.50;;
11010;SDS011;5558;42.702;23.178;2023-07-20T08:57:52;9.07;;;2.70;;
11010;SDS011;5558;42.702;23.178;2023-07-20T09:00:21;5.70;;;2.40;;
11010;SDS011;5558;42.702;23.178;2023-07-20T09:02:50;8.53;;;2.40;;
11010;SDS011;5558;42.702;23.178;2023-07-20T09:05:17;7.03;;;2.80;;
11010;SDS011;5558;42.702;23.178;2023-07-20T09:07:45;6.87;;;2.27;;
11010;SDS011;5558;42.702;23.178;2023-07-20T09:10:12;7.47;;;2.40;;
11010;SDS011;5558;42.702;23.178;2023-07-20T09:12:39;6.60;;;2.30;;
11010;SDS011;5558;42.702;23.178;2023-07-20T09:15:08;6.87;;;2.37;;
11010;SDS011;5558;42.702;23.178;2023-07-20T09:17:37;6.47;;;2.40;;
11010;SDS011;5558;42.702;23.178;2023-07-20T09:20:04;5.47;;;2.50;;
11010;SDS011;5558;42.702;23.178;2023-07-20T09:22:35;7.07;;;2.50;;
11010;SDS011;5558;42.702;23.178;2023-07-20T09:25:05;27.07;;;3.93;;
11010;SDS011;5558;42.702;23.178;2023-07-20T09:27:36;9.20;;;2.57;;
11010;SDS011;5558;42.702;23.178;2023-07-20T09:30:04;6.90;;;2.57;;
11010;SDS011;5558;42.702;23.178;2023-07-20T09:32:32;10.47;;;2.47;;
11010;SDS011;5558;42.702;23.178;2023-07-20T09:35:07;5.37;;;2.30;;
11010;SDS011;5558;42.702;23.178;2023-07-20T09:37:38;6.83;;;2.27;;
11010;SDS011;5558;42.702;23.178;2023-07-20T09:40:06;8.83;;;2.50;;
11010;SDS011;5558;42.702;23.178;2023-07-20T09:42:34;6.97;;;2.20;;
11010;SDS011;5558;42.702;23.178;2023-07-20T09:45:03;4.53;;;2.07;;
11010;SDS011;5558;42.702;23.178;2023-07-20T09:47:33;7.30;;;2.40;;
11010;SDS011;5558;42.702;23.178;2023-07-20T09:50:04;6.53;;;2.20;;
11010;SDS011;5558;42.702;23.178;2023-07-20T09:52:35;4.87;;;1.83;;
11010;SDS011;5558;42.702;23.178;2023-07-20T09:55:05;7.20;;;2.13;;
11010;SDS011;5558;42.702;23.178;2023-07-20T09:57:32;4.03;;;2.00;;
11010;SDS011;5558;42.702;23.178;2023-07-20T09:59:59;4.43;;;2.00;;
11010;SDS011;5558;42.702;23.178;2023-07-20T10:02:30;5.97;;;2.00;;
11010;SDS011;5558;42.702;23.178;2023-07-20T10:05:00;5.37;;;2.00;;
11010;SDS011;5558;42.702;23.178;2023-07-20T10:07:30;5.77;;;2.10;;
11010;SDS011;5558;42.702;23.178;2023-07-20T10:09:59;5.50;;;2.20;;
11010;SDS011;5558;42.702;23.178;2023-07-20T10:12:28;5.97;;;2.20;;
11010;SDS011;5558;42.702;23.178;2023-07-20T10:14:59;5.20;;;1.80;;
11010;SDS011;5558;42.702;23.178;2023-07-20T10:17:29;9.13;;;2.30;;
11010;SDS011;5558;42.702;23.178;2023-07-20T10:19:57;6.70;;;2.17;;
11010;SDS011;5558;42.702;23.178;2023-07-20T10:22:29;6.40;;;1.90;;
11010;SDS011;5558;42.702;23.178;2023-07-20T10:25:02;6.27;;;2.00;;
11010;SDS011;5558;42.702;23.178;2023-07-20T10:27:30;4.90;;;1.83;;
11010;SDS011;5558;42.702;23.178;2023-07-20T10:29:57;5.60;;;2.17;;
11010;SDS011;5558;42.702;23.178;2023-07-20T10:32:26;6.73;;;2.23;;
11010;SDS011;5558;42.702;23.178;2023-07-20T10:34:55;6.90;;;2.00;;
11010;SDS011;5558;42.702;23.178;2023-07-20T10:40:30;7.00;;;2.10;;
11010;SDS011;5558;42.702;23.178;2023-07-20T10:42:58;7.10;;;2.00;;
11010;SDS011;5558;42.702;23.178;2023-07-20T10:48:15;4.37;;;2.00;;
11010;SDS011;5558;42.702;23.178;2023-07-20T10:50:46;6.43;;;2.30;;
11010;SDS011;5558;42.702;23.178;2023-07-20T10:53:34;6.87;;;2.40;;
11010;SDS011;5558;42.702;23.178;2023-07-20T10:56:07;11.60;;;2.70;;
11010;SDS011;5558;42.702;23.178;2023-07-20T10:58:38;6.10;;;2.37;;
11010;SDS011;5558;42.702;23.178;2023-07-20T11:01:05;6.47;;;2.40;;
11010;SDS011;5558;42.702;23.178;2023-07-20T11:03:32;4.40;;;2.00;;
11010;SDS011;5558;42.702;23.178;2023-07-20T11:06:29;7.33;;;2.30;;
11010;SDS011;5558;42.702;23.178;2023-07-20T11:09:08;7.33;;;2.40;;
11010;SDS011;5558;42.702;23.178;2023-07-20T11:11:39;5.00;;;2.20;;
11010;SDS011;5558;42.702;23.178;2023-07-20T11:14:08;6.80;;;2.20;;
11010;SDS011;5558;42.702;23.178;2023-07-20T11:16:36;6.63;;;2.60;;
11010;SDS011;5558;42.702;23.178;2023-07-20T11:19:13;7.23;;;2.23;;
11010;SDS011;5558;42.702;23.178;2023-07-20T11:21:44;8.27;;;2.93;;
11010;SDS011;5558;42.702;23.178;2023-07-20T11:24:13;8.23;;;2.73;;
11010;SDS011;5558;42.702;23.178;2023-07-20T11:26:42;6.30;;;2.97;;
11010;SDS011;5558;42.702;23.178;2023-07-20T11:29:10;6.00;;;2.93;;
11010;SDS011;5558;42.702;23.178;2023-07-20T11:31:37;10.30;;;3.13;;
11010;SDS011;5558;42.702;23.178;2023-07-20T11:34:05;11.10;;;2.77;;
11010;SDS011;5558;42.702;23.178;2023-07-20T11:36:33;11.60;;;3.00;;
11010;SDS011;5558;42.702;23.178;2023-07-20T11:39:00;9.23;;;2.60;;
11010;SDS011;5558;42.702;23.178;2023-07-20T11:41:31;5.70;;;3.00;;
11010;SDS011;5558;42.702;23.178;2023-07-20T11:43:58;7.17;;;2.80;;
11010;SDS011;5558;42.702;23.178;2023-07-20T11:46:25;7.47;;;2.93;;
11010;SDS011;5558;42.702;23.178;2023-07-20T11:48:55;4.33;;;2.70;;
11010;SDS011;5558;42.702;23.178;2023-07-20T11:51:23;8.40;;;2.77;;
11010;SDS011;5558;42.702;23.178;2023-07-20T11:53:51;6.30;;;2.77;;
11010;SDS011;5558;42.702;23.178;2023-07-20T11:56:18;5.87;;;2.73;;
11010;SDS011;5558;42.702;23.178;2023-07-20T11:58:46;12.33;;;2.90;;
11010;SDS011;5558;42.702;23.178;2023-07-20T12:01:13;7.37;;;3.00;;
11010;SDS011;5558;42.702;23.178;2023-07-20T12:03:41;4.97;;;2.70;;
11010;SDS011;5558;42.702;23.178;2023-07-20T12:06:08;5.97;;;2.80;;
11010;SDS011;5558;42.702;23.178;2023-07-20T12:08:37;5.80;;;2.60;;
11010;SDS011;5558;42.702;23.178;2023-07-20T12:11:05;6.37;;;2.73;;
11010;SDS011;5558;42.702;23.178;2023-07-20T12:13:35;5.47;;;2.60;;
11010;SDS011;5558;42.702;23.178;2023-07-20T12:16:08;9.00;;;2.70;;
11010;SDS011;5558;42.702;23.178;2023-07-20T12:18:36;6.77;;;2.30;;
11010;SDS011;5558;42.702;23.178;2023-07-20T12:21:05;7.23;;;2.50;;
11010;SDS011;5558;42.702;23.178;2023-07-20T12:23:34;7.10;;;2.50;;
11010;SDS011;5558;42.702;23.178;2023-07-20T12:26:03;7.17;;;2.50;;
11010;SDS011;5558;42.702;23.178;2023-07-20T12:28:32;6.97;;;2.40;;
11010;SDS011;5558;42.702;23.178;2023-07-20T12:30:58;6.47;;;2.60;;
11010;SDS011;5558;42.702;23.178;2023-07-20T12:33:26;8.30;;;2.50;;
11010;SDS011;5558;42.702;23.178;2023-07-20T12:35:53;6.43;;;2.57;;
11010;SDS011;5558;42.702;23.178;2023-07-20T12:38:21;5.70;;;2.53;;
11010;SDS011;5558;42.702;23.178;2023-07-20T12:40:49;5.93;;;2.67;;
11010;SDS011;5558;42.702;23.178;2023-07-20T12:43:16;6.83;;;2.70;;
11010;SDS011;5558;42.702;23.178;2023-07-20T12:45:42;7.20;;;2.70;;
11010;SDS011;5558;42.702;23.178;2023-07-20T12:48:09;7.23;;;2.63;;
11010;SDS011;5558;42.702;23.178;2023-07-20T12:50:37;6.70;;;2.87;;
11010;SDS011;5558;42.702;23.178;2023-07-20T12:53:04;7.17;;;2.77;;
11010;SDS011;5558;42.702;23.178;2023-07-20T12:55:31;5.40;;;2.70;;
11010;SDS011;5558;42.702;23.178;2023-07-20T12:57:59;5.47;;;2.70;;
11010;SDS011;5558;42.702;23.178;2023-07-20T13:00:25;7.27;;;2.57;;
11010;SDS011;5558;42.702;23.178;2023-07-20T13:02:52;4.60;;;2.30;;
11010;SDS011;5558;42.702;23.178;2023-07-20T13:05:19;5.20;;;2.20;;
11010;SDS011;5558;42.702;23.178;2023-07-20T13:07:47;6.43;;;2.60;;
11010;SDS011;5558;42.702;23.178;2023-07-20T13:10:14;7.23;;;2.70;;
11010;SDS011;5558;42.702;23.178;2023-07-20T13:12:40;7.90;;;2.70;;
11010;SDS011;5558;42.702;23.178;2023-07-20T13:15:08;7.00;;;2.80;;
11010;SDS011;5558;42.702;23.178;2023-07-20T13:17:36;10.10;;;3.03;;
11010;SDS011;5558;42.702;23.178;2023-07-20T13:20:05;6.93;;;2.23;;
11010;SDS011;5558;42.702;23.178;2023-07-20T13:22:35;7.87;;;2.50;;
11010;SDS011;5558;42.702;23.178;2023-07-20T13:25:04;7.13;;;2.70;;
11010;SDS011;5558;42.702;23.178;2023-07-20T13:27:31;9.07;;;2.77;;
11010;SDS011;5558;42.702;23.178;2023-07-20T13:29:58;7.93;;;2.50;;
11010;SDS011;5558;42.702;23.178;2023-07-20T13:32:26;7.67;;;2.57;;
11010;SDS011;5558;42.702;23.178;2023-07-20T13:34:53;6.27;;;2.60;;
11010;SDS011;5558;42.702;23.178;2023-07-20T13:37:20;7.77;;;2.50;;
11010;SDS011;5558;42.702;23.178;2023-07-20T13:39:46;7.10;;;2.47;;
11010;SDS011;5558;42.702;23.178;2023-07-20T13:42:15;6.83;;;2.50;;
11010;SDS011;5558;42.702;23.178;2023-07-20T13:44:42;6.90;;;2.30;;
11010;SDS011;5558;42.702;23.178;2023-07-20T13:47:09;6.47;;;2.23;;
11010;SDS011;5558;42.702;23.178;2023-07-20T13:49:36;7.00;;;2.40;;
11010;SDS011;5558;42.702;23.178;2023-07-20T13:52:03;6.63;;;2.30;;
11010;SDS011;5558;42.702;23.178;2023-07-20T13:54:32;6.13;;;2.20;;
11010;SDS011;5558;42.702;23.178;2023-07-20T13:57:00;6.53;;;2.33;;
11010;SDS011;5558;42.702;23.178;2023-07-20T13:59:31;7.23;;;2.10;;
11010;SDS011;5558;42.702;23.178;2023-07-20T14:01:58;6.40;;;2.40;;
11010;SDS011;5558;42.702;23.178;2023-07-20T14:04:24;6.90;;;2.37;;
11010;SDS011;5558;42.702;23.178;2023-07-20T14:06:51;8.53;;;2.23;;
11010;SDS011;5558;42.702;23.178;2023-07-20T14:09:18;7.70;;;2.63;;
11010;SDS011;5558;42.702;23.178;2023-07-20T14:11:44;4.77;;;2.27;;
11010;SDS011;5558;42.702;23.178;2023-07-20T14:14:11;5.70;;;2.47;;
11010;SDS011;5558;42.702;23.178;2023-07-20T14:16:39;5.23;;;2.30;;
11010;SDS011;5558;42.702;23.178;2023-07-20T14:19:06;7.83;;;2.53;;
11010;SDS011;5558;42.702;23.178;2023-07-20T14:21:33;6.73;;;2.40;;
11010;SDS011;5558;42.702;23.178;2023-07-20T14:24:00;4.03;;;2.03;;
11010;SDS011;5558;42.702;23.178;2023-07-20T14:26:27;7.13;;;2.33;;
11010;SDS011;5558;42.702;23.178;2023-07-20T14:28:53;6.60;;;2.43;;
11010;SDS011;5558;42.702;23.178;2023-07-20T14:31:20;19.33;;;3.10;;
11010;SDS011;5558;42.702;23.178;2023-07-20T14:33:48;5.83;;;2.20;;
11010;SDS011;5558;42.702;23.178;2023-07-20T14:36:15;6.20;;;2.20;;
11010;SDS011;5558;42.702;23.178;2023-07-20T14:38:43;7.13;;;2.33;;
11010;SDS011;5558;42.702;23.178;2023-07-20T14:41:09;7.17;;;2.40;;
11010;SDS011;5558;42.702;23.178;2023-07-20T14:43:37;6.03;;;2.53;;
11010;SDS011;5558;42.702;23.178;2023-07-20T14:46:04;6.40;;;2.33;;
11010;SDS011;5558;42.702;23.178;2023-07-20T14:48:30;6.37;;;2.43;;
11010;SDS011;5558;42.702;23.178;2023-07-20T14:50:58;4.50;;;2.17;;
11010;SDS011;5558;42.702;23.178;2023-07-20T14:53:25;6.43;;;2.50;;
11010;SDS011;5558;42.702;23.178;2023-07-20T14:55:57;5.20;;;2.17;;
11010;SDS011;5558;42.702;23.178;2023-07-20T14:58:25;6.93;;;2.40;;